Time;durP1;ratioP1;P1;durP2;ratioP2;P2;SDS_P1;SDS_P2;PMS_P1;PMS_P2;Temp;Humidity;BMP_temperature;BMP_pressure;BME280_temperature;BME280_humidity;BME280_pressure;Samples;Min_cycle;Max_cycle;Signal;HPM_P1;HPM_P2
2023/11/01 00:01:36;;;;;;;3.63;1.40;;;10.70;99.90;;;;;;5018123;28;20030;-66
2023/11/01 00:04:02;;;;;;;9.55;2.10;;;10.70;99.90;;;;;;5019233;28;20566;-66
2023/11/01 00:06:28;;;;;;;9.88;1.80;;;10.70;99.90;;;;;;5017950;28;20044;-66
2023/11/01 00:08:54;;;;;;;8.27;1.90;;;10.70;99.90;;;;;;5000045;28;20056;-66
2023/11/01 00:11:20;;;;;;;6.55;1.65;;;10.70;99.90;;;;;;5019507;28;20033;-66
2023/11/01 00:13:45;;;;;;;5.50;1.75;;;10.70;99.90;;;;;;5019903;28;20025;-66
2023/11/01 00:16:11;;;;;;;5.93;1.77;;;10.80;99.90;;;;;;5019579;28;20025;-66
2023/11/01 00:18:36;;;;;;;8.75;1.90;;;10.80;99.90;;;;;;5016019;28;20450;-66
2023/11/01 00:21:02;;;;;;;2.45;1.58;;;10.80;99.90;;;;;;5019718;28;20029;-66
2023/11/01 00:23:28;;;;;;;5.68;2.00;;;10.80;99.90;;;;;;5017120;28;20041;-66
2023/11/01 00:25:53;;;;;;;8.45;1.80;;;10.80;99.90;;;;;;5016342;28;20499;-66
2023/11/01 00:28:19;;;;;;;7.13;2.13;;;10.90;99.90;;;;;;5016489;28;20022;-66
2023/11/01 00:30:45;;;;;;;8.23;2.33;;;10.90;99.90;;;;;;5018221;28;20033;-67
2023/11/01 00:33:10;;;;;;;6.65;2.15;;;10.90;99.90;;;;;;5016361;28;20017;-65
2023/11/01 00:35:36;;;;;;;7.70;1.60;;;10.90;99.90;;;;;;5018021;28;20106;-66
2023/11/01 00:38:02;;;;;;;5.75;2.13;;;11.00;99.90;;;;;;5016024;28;20029;-68
2023/11/01 00:40:28;;;;;;;4.53;1.83;;;11.00;99.90;;;;;;5017771;28;20446;-66
2023/11/01 00:42:53;;;;;;;8.48;1.98;;;10.90;99.90;;;;;;5015976;28;20033;-66
2023/11/01 00:45:19;;;;;;;9.48;1.92;;;11.00;99.90;;;;;;5014786;28;20040;-66
2023/11/01 00:47:45;;;;;;;5.32;1.80;;;11.00;99.90;;;;;;5016813;28;20056;-66
2023/11/01 00:50:10;;;;;;;8.18;1.63;;;10.90;99.90;;;;;;5015840;28;20462;-65
2023/11/01 00:52:36;;;;;;;4.32;2.00;;;11.00;99.90;;;;;;5018948;28;20037;-66
2023/11/01 00:55:03;;;;;;;6.05;1.60;;;10.90;99.90;;;;;;5017728;28;20169;-66
2023/11/01 00:57:28;;;;;;;3.58;1.95;;;10.90;99.90;;;;;;5017303;28;20106;-66
2023/11/01 00:59:54;;;;;;;7.50;2.03;;;10.90;99.90;;;;;;5017062;28;20114;-66
2023/11/01 01:02:19;;;;;;;6.47;2.00;;;10.90;99.90;;;;;;5015333;28;20056;-66
2023/11/01 01:04:46;;;;;;;7.30;2.80;;;10.80;99.90;;;;;;5015441;28;20115;-66
2023/11/01 01:07:12;;;;;;;13.38;2.35;;;10.80;99.90;;;;;;5000044;28;20060;-66
2023/11/01 01:09:38;;;;;;;7.80;2.03;;;10.80;99.90;;;;;;5019694;28;20037;-66
2023/11/01 01:12:04;;;;;;;3.80;1.70;;;10.80;99.90;;;;;;5016672;28;20045;-67
2023/11/01 01:14:30;;;;;;;8.07;2.13;;;10.80;99.90;;;;;;5017645;28;21230;-67
2023/11/01 01:16:55;;;;;;;11.27;2.10;;;10.70;99.90;;;;;;5015810;28;20043;-66
2023/11/01 01:19:22;;;;;;;7.30;1.63;;;10.70;99.90;;;;;;5018110;28;20038;-66
2023/11/01 01:21:48;;;;;;;6.45;1.83;;;10.70;99.90;;;;;;5016483;28;20443;-66
2023/11/01 01:24:13;;;;;;;7.40;2.20;;;10.70;99.90;;;;;;5016954;28;20047;-65
2023/11/01 01:26:39;;;;;;;8.85;2.28;;;10.70;99.90;;;;;;5014891;28;20116;-66
2023/11/01 01:29:05;;;;;;;6.43;1.95;;;10.60;99.90;;;;;;5014856;28;20100;-66
2023/11/01 01:31:30;;;;;;;9.85;3.50;;;10.60;99.90;;;;;;5014695;28;20033;-67
2023/11/01 01:33:56;;;;;;;5.80;2.05;;;10.60;99.90;;;;;;5014080;28;20040;-66
2023/11/01 01:36:21;;;;;;;8.02;2.00;;;10.60;99.90;;;;;;5015705;28;20045;-66
2023/11/01 01:38:47;;;;;;;12.10;2.30;;;10.60;99.90;;;;;;5016852;28;20156;-67
2023/11/01 01:41:13;;;;;;;4.60;2.08;;;10.60;99.90;;;;;;5016670;28;20061;-66
2023/11/01 01:43:38;;;;;;;7.43;2.15;;;10.60;99.90;;;;;;5015295;28;20395;-66
2023/11/01 01:46:09;;;;;;;10.57;2.25;;;10.60;99.90;;;;;;4980706;28;20050;-66
2023/11/01 01:48:35;;;;;;;10.85;2.13;;;10.60;99.90;;;;;;5016397;28;20037;-67
2023/11/01 01:51:02;;;;;;;8.82;2.67;;;10.60;99.90;;;;;;5015415;28;20034;-66
2023/11/01 01:53:28;;;;;;;5.57;2.10;;;10.60;99.90;;;;;;5015511;28;21185;-66
2023/11/01 01:55:54;;;;;;;5.72;1.80;;;10.60;99.90;;;;;;5016413;28;20030;-66
2023/11/01 01:58:21;;;;;;;5.57;2.00;;;10.60;99.90;;;;;;5020197;28;20039;-68
2023/11/01 02:00:48;;;;;;;9.27;1.88;;;10.60;99.90;;;;;;5018754;28;20084;-66
2023/11/01 02:03:15;;;;;;;4.35;1.75;;;10.60;99.90;;;;;;5018765;28;20022;-67
2023/11/01 02:05:41;;;;;;;7.85;1.75;;;10.60;99.90;;;;;;5021100;28;20044;-66
2023/11/01 02:08:07;;;;;;;5.57;1.60;;;10.60;99.90;;;;;;4999200;28;20042;-66
2023/11/01 02:10:32;;;;;;;5.20;2.70;;;10.60;99.90;;;;;;5018815;28;20034;-65
2023/11/01 02:13:12;;;;;;;9.85;1.80;;;10.50;99.90;;;;;;5019978;28;20030;-66
2023/11/01 02:15:40;;;;;;;10.75;1.80;;;10.60;99.90;;;;;;5036853;28;20075;-66
2023/11/01 02:18:06;;;;;;;5.68;2.20;;;10.60;99.90;;;;;;5019024;28;20041;-66
2023/11/01 02:20:37;;;;;;;6.00;2.00;;;10.60;99.90;;;;;;5020690;28;20021;-67
2023/11/01 02:23:06;;;;;;;8.80;2.40;;;10.60;99.90;;;;;;5019662;28;20139;-66
2023/11/01 02:25:32;;;;;;;5.25;1.67;;;10.60;99.90;;;;;;5019754;28;20029;-66
2023/11/01 02:27:58;;;;;;;9.00;2.03;;;10.50;99.90;;;;;;5018613;28;20033;-66
2023/11/01 02:30:24;;;;;;;6.40;2.00;;;10.60;99.90;;;;;;5019428;28;20079;-66
2023/11/01 02:32:53;;;;;;;6.05;1.77;;;10.60;99.90;;;;;;5019425;28;20025;-66
2023/11/01 02:35:19;;;;;;;9.00;1.60;;;10.60;99.90;;;;;;5018716;28;20040;-66
2023/11/01 02:37:45;;;;;;;4.38;1.90;;;10.60;99.90;;;;;;5018130;28;20026;-66
2023/11/01 02:40:11;;;;;;;3.10;1.88;;;10.60;99.90;;;;;;5017905;28;20148;-65
2023/11/01 02:42:47;;;;;;;7.93;1.90;;;10.50;99.90;;;;;;5018458;28;20029;-67
2023/11/01 02:45:14;;;;;;;8.32;1.83;;;10.60;99.90;;;;;;5019877;28;20050;-66
2023/11/01 02:47:41;;;;;;;6.07;1.63;;;10.60;99.90;;;;;;5016985;28;20033;-66
2023/11/01 02:50:11;;;;;;;3.85;1.90;;;10.50;99.90;;;;;;5019639;28;20069;-67
2023/11/01 02:52:40;;;;;;;4.28;1.67;;;10.60;99.90;;;;;;5018111;28;20029;-66
2023/11/01 02:55:14;;;;;;;6.82;1.80;;;10.60;99.90;;;;;;5019444;28;20063;-66
2023/11/01 02:57:40;;;;;;;4.93;1.52;;;10.60;99.90;;;;;;5019506;28;20037;-67
2023/11/01 03:00:07;;;;;;;3.08;1.67;;;10.60;99.90;;;;;;5018163;28;20126;-66
2023/11/01 03:02:37;;;;;;;8.30;1.88;;;10.60;99.90;;;;;;5016127;28;20502;-67
2023/11/01 03:05:05;;;;;;;8.38;1.67;;;10.70;99.90;;;;;;5019580;28;20041;-66
2023/11/01 03:07:31;;;;;;;2.40;1.38;;;10.70;99.90;;;;;;4997703;28;20046;-66
2023/11/01 03:09:57;;;;;;;5.68;1.73;;;10.70;99.90;;;;;;5030568;28;20034;-66
2023/11/01 03:12:22;;;;;;;5.22;1.52;;;10.70;99.90;;;;;;5018715;28;20037;-67
2023/11/01 03:14:48;;;;;;;11.23;1.77;;;10.70;99.90;;;;;;5018706;28;20510;-66
2023/11/01 03:17:14;;;;;;;5.93;1.67;;;10.80;99.90;;;;;;5016520;28;20068;-67
2023/11/01 03:19:40;;;;;;;4.03;1.60;;;10.70;99.90;;;;;;5018523;28;20034;-67
2023/11/01 03:22:06;;;;;;;6.30;2.00;;;10.70;99.90;;;;;;5019472;28;20029;-67
2023/11/01 03:24:32;;;;;;;4.82;1.75;;;10.80;99.90;;;;;;5019992;28;20061;-66
2023/11/01 03:26:58;;;;;;;6.07;1.83;;;10.80;99.90;;;;;;5020195;28;20029;-68
2023/11/01 03:29:24;;;;;;;3.50;1.50;;;10.80;99.90;;;;;;5017962;28;20044;-67
2023/11/01 03:31:50;;;;;;;11.68;2.17;;;10.80;99.90;;;;;;5017459;28;20026;-66
2023/11/01 03:34:16;;;;;;;3.20;1.23;;;10.80;99.90;;;;;;5019496;28;20024;-66
2023/11/01 03:36:41;;;;;;;7.07;1.70;;;10.80;99.90;;;;;;5017764;28;20040;-66
2023/11/01 03:39:09;;;;;;;2.60;1.60;;;10.80;99.90;;;;;;5019266;28;20152;-66
2023/11/01 03:41:41;;;;;;;7.80;1.88;;;10.80;99.90;;;;;;5019823;28;20033;-66
2023/11/01 03:44:07;;;;;;;5.32;1.30;;;10.80;99.90;;;;;;5019855;28;20038;-68
2023/11/01 03:46:33;;;;;;;2.95;1.45;;;10.80;99.90;;;;;;5015719;28;20033;-66
2023/11/01 03:48:59;;;;;;;8.90;2.45;;;10.80;99.90;;;;;;5020352;28;20029;-66
2023/11/01 03:51:26;;;;;;;6.15;1.75;;;10.80;99.90;;;;;;5019762;28;20557;-66
2023/11/01 03:53:52;;;;;;;12.10;1.92;;;10.80;99.90;;;;;;5018282;28;20034;-66
2023/11/01 03:56:18;;;;;;;3.95;1.30;;;10.80;99.90;;;;;;5014214;28;20032;-66
2023/11/01 03:58:44;;;;;;;10.95;2.25;;;10.80;99.90;;;;;;5018417;28;20156;-66
2023/11/01 04:01:10;;;;;;;4.00;1.83;;;10.80;99.90;;;;;;5018968;28;20041;-66
2023/11/01 04:03:35;;;;;;;7.28;1.80;;;10.80;99.90;;;;;;5015461;28;20395;-66
2023/11/01 04:06:01;;;;;;;8.13;2.03;;;10.80;99.90;;;;;;5017517;28;20029;-67
2023/11/01 04:08:27;;;;;;;9.90;2.03;;;10.80;99.90;;;;;;4999285;28;20082;-66
2023/11/01 04:10:52;;;;;;;6.65;2.28;;;10.80;99.90;;;;;;5020040;28;20108;-66
2023/11/01 04:13:19;;;;;;;6.13;1.73;;;10.80;99.90;;;;;;5018535;28;20192;-67
2023/11/01 04:15:45;;;;;;;7.47;1.55;;;10.70;99.90;;;;;;5019274;28;20076;-66
2023/11/01 04:18:10;;;;;;;5.30;1.60;;;10.80;99.90;;;;;;5020389;28;20033;-66
2023/11/01 04:20:36;;;;;;;7.53;1.70;;;10.80;99.90;;;;;;5016459;28;20045;-67
2023/11/01 04:23:01;;;;;;;4.90;1.38;;;10.80;99.90;;;;;;5018202;28;20040;-66
2023/11/01 04:25:28;;;;;;;3.22;1.60;;;10.70;99.90;;;;;;5017736;28;20088;-66
2023/11/01 04:27:55;;;;;;;8.23;2.00;;;10.80;99.90;;;;;;5018745;28;20740;-66
2023/11/01 04:30:21;;;;;;;4.20;1.30;;;10.80;99.90;;;;;;5016440;28;20037;-67
2023/11/01 04:32:46;;;;;;;3.83;1.45;;;10.80;99.90;;;;;;5017135;28;20021;-67
2023/11/01 04:35:12;;;;;;;8.90;1.92;;;10.80;99.90;;;;;;5016502;28;20026;-66
2023/11/01 04:37:39;;;;;;;2.65;1.60;;;10.80;99.90;;;;;;5018347;28;20084;-66
2023/11/01 04:40:11;;;;;;;3.33;1.63;;;10.80;99.90;;;;;;5017253;28;20103;-66
2023/11/01 04:42:40;;;;;;;4.03;1.85;;;10.80;99.90;;;;;;5017467;28;20750;-66
2023/11/01 04:45:10;;;;;;;4.35;1.65;;;10.80;99.90;;;;;;5019681;28;20040;-67
2023/11/01 04:47:36;;;;;;;2.55;1.50;;;10.90;99.90;;;;;;5017592;28;21173;-68
2023/11/01 04:50:08;;;;;;;2.25;1.50;;;10.80;99.90;;;;;;5015648;28;20158;-66
2023/11/01 04:52:38;;;;;;;3.53;1.23;;;10.80;99.90;;;;;;5017270;28;20104;-67
2023/11/01 04:55:04;;;;;;;5.90;1.10;;;10.90;99.90;;;;;;5017401;28;20029;-66
2023/11/01 04:57:31;;;;;;;3.25;1.40;;;10.90;99.90;;;;;;5019009;28;20035;-66
2023/11/01 04:59:56;;;;;;;4.50;1.20;;;10.90;99.90;;;;;;5017587;28;20037;-66
2023/11/01 05:02:22;;;;;;;11.63;2.13;;;10.90;99.90;;;;;;5018896;28;21277;-66
2023/11/01 05:04:48;;;;;;;4.43;1.17;;;10.90;99.90;;;;;;5018462;28;20030;-65
2023/11/01 05:07:13;;;;;;;6.15;1.40;;;10.90;99.90;;;;;;5013625;28;20037;-66
2023/11/01 05:09:39;;;;;;;3.10;1.40;;;10.90;99.90;;;;;;4991971;28;20495;-67
2023/11/01 05:12:05;;;;;;;5.18;1.48;;;10.90;99.90;;;;;;5015514;28;20044;-65
2023/11/01 05:14:30;;;;;;;5.20;2.47;;;10.90;99.90;;;;;;5017908;28;20090;-66
2023/11/01 05:16:56;;;;;;;5.57;1.38;;;11.00;99.90;;;;;;5016790;28;20030;-67
2023/11/01 05:19:22;;;;;;;8.60;1.38;;;11.00;99.90;;;;;;5016571;28;20044;-66
2023/11/01 05:21:48;;;;;;;3.35;1.20;;;11.00;99.90;;;;;;5016654;28;20037;-66
2023/11/01 05:24:13;;;;;;;1.88;1.10;;;11.00;99.90;;;;;;5017873;28;20423;-66
2023/11/01 05:26:39;;;;;;;5.57;1.33;;;10.90;99.90;;;;;;5018362;28;20037;-67
2023/11/01 05:29:05;;;;;;;5.28;1.48;;;11.00;99.90;;;;;;5014466;28;20485;-66
2023/11/01 05:31:34;;;;;;;2.67;1.23;;;11.00;99.90;;;;;;5015001;28;20038;-66
2023/11/01 05:34:00;;;;;;;2.88;1.10;;;11.00;99.90;;;;;;5017498;28;20025;-64
2023/11/01 05:36:26;;;;;;;4.35;1.13;;;11.00;99.90;;;;;;5018686;28;20029;-67
2023/11/01 05:38:55;;;;;;;2.33;1.05;;;10.90;99.90;;;;;;5017146;28;20079;-66
2023/11/01 05:41:22;;;;;;;3.15;1.10;;;10.90;99.90;;;;;;5016840;28;20127;-67
2023/11/01 05:43:47;;;;;;;8.75;1.20;;;10.90;99.90;;;;;;5016979;28;20036;-67
2023/11/01 05:46:14;;;;;;;2.33;1.13;;;10.90;99.90;;;;;;5014275;28;20037;-66
2023/11/01 05:48:39;;;;;;;6.68;1.25;;;10.90;99.90;;;;;;5012567;28;20120;-66
2023/11/01 05:51:06;;;;;;;1.88;1.20;;;10.90;99.90;;;;;;5015390;28;20483;-67
2023/11/01 05:53:31;;;;;;;4.53;1.50;;;10.90;99.90;;;;;;5016847;28;20037;-66
2023/11/01 05:55:59;;;;;;;6.72;2.03;;;10.90;99.90;;;;;;5016563;28;20039;-67
2023/11/01 05:58:25;;;;;;;3.20;1.42;;;10.90;99.90;;;;;;5016807;28;20029;-66
2023/11/01 06:00:50;;;;;;;5.68;1.40;;;10.90;99.90;;;;;;5014262;28;20032;-66
2023/11/01 06:03:16;;;;;;;2.00;1.30;;;10.90;99.90;;;;;;5014448;28;20033;-65
2023/11/01 06:05:42;;;;;;;3.85;1.20;;;11.00;99.90;;;;;;5015992;28;20039;-66
2023/11/01 06:08:11;;;;;;;4.00;1.00;;;10.90;99.90;;;;;;4990318;28;20458;-67
2023/11/01 06:10:37;;;;;;;4.32;1.10;;;10.90;99.90;;;;;;5015095;28;20038;-66
2023/11/01 06:13:04;;;;;;;2.70;1.42;;;11.00;99.90;;;;;;5016185;28;20021;-66
2023/11/01 06:15:29;;;;;;;1.92;0.93;;;10.90;99.90;;;;;;5014811;28;20479;-66
2023/11/01 06:17:56;;;;;;;9.18;1.48;;;11.00;99.90;;;;;;5015003;28;20101;-66
2023/11/01 06:20:22;;;;;;;6.05;1.73;;;11.00;99.90;;;;;;5015285;28;20033;-67
2023/11/01 06:22:48;;;;;;;6.65;1.27;;;11.00;99.90;;;;;;5014031;28;20605;-66
2023/11/01 06:25:15;;;;;;;6.75;1.33;;;11.00;99.90;;;;;;5015222;28;20037;-66
2023/11/01 06:27:41;;;;;;;2.70;1.33;;;11.00;99.90;;;;;;5015013;28;20491;-66
2023/11/01 06:30:07;;;;;;;9.38;1.40;;;11.00;99.90;;;;;;5014055;28;20034;-65
2023/11/01 06:32:35;;;;;;;3.47;1.27;;;11.00;99.90;;;;;;5016176;28;20013;-66
2023/11/01 06:35:01;;;;;;;9.32;1.25;;;11.10;99.90;;;;;;5016300;28;20025;-65
2023/11/01 06:37:27;;;;;;;3.35;1.55;;;11.10;99.90;;;;;;5016910;28;21322;-65
2023/11/01 06:39:53;;;;;;;4.15;1.05;;;11.10;99.90;;;;;;5016869;28;20041;-66
2023/11/01 06:42:19;;;;;;;5.25;1.00;;;11.10;99.90;;;;;;5019067;28;20131;-66
2023/11/01 06:44:44;;;;;;;2.10;1.27;;;11.10;99.90;;;;;;5018626;28;20057;-66
2023/11/01 06:47:10;;;;;;;2.92;1.02;;;11.20;99.90;;;;;;5017465;28;20105;-65
2023/11/01 06:49:38;;;;;;;8.50;1.05;;;11.20;99.90;;;;;;5019046;28;20680;-66
2023/11/01 06:52:04;;;;;;;5.32;1.40;;;11.20;99.90;;;;;;5018968;28;20024;-66
2023/11/01 06:54:30;;;;;;;9.02;1.27;;;11.20;99.90;;;;;;5018243;28;20160;-66
2023/11/01 06:56:56;;;;;;;4.05;1.17;;;11.20;99.90;;;;;;5019703;28;20137;-66
2023/11/01 06:59:22;;;;;;;4.57;0.95;;;11.30;99.90;;;;;;5020090;28;20034;-68
2023/11/01 07:01:47;;;;;;;2.17;1.10;;;11.30;99.90;;;;;;5019372;28;20443;-65
2023/11/01 07:04:13;;;;;;;2.20;0.90;;;11.40;99.90;;;;;;5019938;28;20071;-66
2023/11/01 07:06:39;;;;;;;3.70;1.33;;;11.40;99.90;;;;;;5016207;28;20056;-66
2023/11/01 07:09:07;;;;;;;8.38;1.65;;;11.40;99.90;;;;;;4996395;28;20046;-66
2023/11/01 07:11:33;;;;;;;3.67;1.25;;;11.40;99.90;;;;;;5017724;28;20040;-65
2023/11/01 07:13:59;;;;;;;9.18;1.60;;;11.40;99.90;;;;;;5018548;28;20029;-66
2023/11/01 07:16:24;;;;;;;3.92;1.13;;;11.50;99.90;;;;;;5017412;28;20522;-66
2023/11/01 07:18:50;;;;;;;3.83;1.00;;;11.50;99.90;;;;;;5019379;28;20156;-67
2023/11/01 07:21:16;;;;;;;7.70;1.67;;;11.50;99.90;;;;;;5018342;28;20422;-66
2023/11/01 07:23:42;;;;;;;3.10;1.10;;;11.60;99.90;;;;;;5019759;28;20041;-66
2023/11/01 07:26:07;;;;;;;7.20;1.65;;;11.60;99.90;;;;;;5017030;28;20030;-66
2023/11/01 07:28:34;;;;;;;11.35;1.35;;;11.60;99.90;;;;;;5018068;28;20057;-67
2023/11/01 07:31:00;;;;;;;5.38;1.30;;;11.60;99.90;;;;;;5016907;28;20483;-67
2023/11/01 07:33:25;;;;;;;3.88;1.15;;;11.70;99.90;;;;;;5015577;28;20025;-66
2023/11/01 07:35:51;;;;;;;4.82;1.38;;;11.70;99.90;;;;;;5018199;28;20013;-67
2023/11/01 07:38:16;;;;;;;5.25;1.48;;;11.70;99.90;;;;;;5016527;28;20025;-67
2023/11/01 07:40:42;;;;;;;5.68;1.02;;;11.80;99.90;;;;;;5017870;28;20033;-66
2023/11/01 07:43:08;;;;;;;4.63;1.10;;;11.80;99.90;;;;;;5017960;28;20495;-69
2023/11/01 07:45:33;;;;;;;6.32;0.98;;;11.80;99.90;;;;;;5018694;28;20037;-68
2023/11/01 07:47:59;;;;;;;7.22;1.80;;;11.90;99.90;;;;;;5018640;28;20045;-67
2023/11/01 07:50:24;;;;;;;7.25;1.33;;;11.90;99.90;;;;;;5017072;28;20033;-68
2023/11/01 07:52:50;;;;;;;5.43;1.20;;;12.00;99.90;;;;;;5019004;28;20036;-67
2023/11/01 07:55:16;;;;;;;4.15;1.30;;;12.10;99.90;;;;;;5019852;28;20151;-68
2023/11/01 07:57:42;;;;;;;4.65;1.25;;;12.20;99.90;;;;;;5018037;28;20057;-69
2023/11/01 08:00:08;;;;;;;6.78;1.17;;;12.30;99.90;;;;;;5017509;28;20113;-67
2023/11/01 08:02:33;;;;;;;6.32;2.17;;;12.40;99.90;;;;;;5016741;28;20037;-68
2023/11/01 08:04:59;;;;;;;8.38;1.55;;;12.40;99.90;;;;;;5015759;28;20040;-68
2023/11/01 08:07:25;;;;;;;5.07;1.10;;;12.50;99.90;;;;;;5019053;28;20026;-66
2023/11/01 08:09:52;;;;;;;7.43;1.48;;;12.60;99.90;;;;;;4993204;28;20049;-67
2023/11/01 08:12:18;;;;;;;11.55;1.50;;;12.70;99.90;;;;;;5018447;28;20026;-66
2023/11/01 08:14:44;;;;;;;12.05;1.77;;;12.80;99.90;;;;;;5014417;28;20531;-65
2023/11/01 08:17:10;;;;;;;7.60;1.30;;;12.90;99.90;;;;;;5013508;28;20032;-65
2023/11/01 08:19:38;;;;;;;7.85;1.33;;;13.00;99.90;;;;;;5013149;28;20049;-65
2023/11/01 08:22:04;;;;;;;5.00;1.58;;;13.00;99.90;;;;;;5015931;28;20517;-68
2023/11/01 08:24:29;;;;;;;5.05;2.13;;;13.00;99.90;;;;;;5018886;28;20034;-67
2023/11/01 08:26:55;;;;;;;5.63;1.63;;;13.10;99.90;;;;;;5016188;28;20546;-66
2023/11/01 08:29:21;;;;;;;6.55;1.23;;;13.10;99.90;;;;;;5018478;28;20034;-66
2023/11/01 08:31:47;;;;;;;10.57;1.40;;;13.10;99.90;;;;;;5017124;28;20067;-66
2023/11/01 08:34:13;;;;;;;5.93;0.88;;;13.20;99.90;;;;;;5017684;28;20139;-66
2023/11/01 08:36:38;;;;;;;4.20;1.23;;;13.20;99.90;;;;;;5018413;28;20029;-66
2023/11/01 08:39:04;;;;;;;8.93;1.30;;;13.10;99.90;;;;;;5017330;28;20039;-65
2023/11/01 08:41:30;;;;;;;7.47;1.27;;;13.10;99.90;;;;;;5016350;28;20034;-66
2023/11/01 08:43:55;;;;;;;6.30;1.80;;;13.20;99.90;;;;;;5017664;28;20029;-67
2023/11/01 08:46:21;;;;;;;6.95;1.08;;;13.20;99.90;;;;;;5014185;28;20101;-67
2023/11/01 08:48:47;;;;;;;4.57;1.00;;;13.30;99.90;;;;;;5016500;28;20111;-67
2023/11/01 08:51:14;;;;;;;4.95;1.20;;;13.40;99.90;;;;;;5015488;28;20025;-67
2023/11/01 08:53:40;;;;;;;2.00;1.00;;;13.50;99.90;;;;;;5016439;28;20025;-66
2023/11/01 08:56:07;;;;;;;5.15;1.00;;;13.60;99.90;;;;;;5017338;28;20407;-66
2023/11/01 08:58:33;;;;;;;5.30;1.08;;;13.70;99.90;;;;;;5016425;28;20040;-66
2023/11/01 09:01:00;;;;;;;5.88;1.33;;;13.60;99.90;;;;;;5016302;28;20037;-65
2023/11/01 09:03:25;;;;;;;8.02;1.45;;;13.70;99.90;;;;;;5015972;28;20036;-65
2023/11/01 09:05:52;;;;;;;6.45;0.80;;;13.70;99.90;;;;;;5013900;28;20483;-66
2023/11/01 09:08:18;;;;;;;3.85;1.00;;;13.70;99.90;;;;;;4995328;28;20451;-66
2023/11/01 09:10:44;;;;;;;7.00;1.70;;;13.80;99.90;;;;;;5016650;28;20084;-67
2023/11/01 09:13:10;;;;;;;3.40;0.95;;;13.90;99.90;;;;;;5017308;28;20025;-67
2023/11/01 09:15:36;;;;;;;6.50;1.10;;;14.10;99.90;;;;;;5017534;28;20700;-66
2023/11/01 09:18:01;;;;;;;3.97;0.88;;;14.10;99.90;;;;;;5015243;28;20255;-67
2023/11/01 09:20:27;;;;;;;3.78;0.90;;;14.20;99.90;;;;;;5014955;28;20030;-66
2023/11/01 09:22:53;;;;;;;3.58;1.00;;;14.30;99.90;;;;;;5015018;28;20057;-66
2023/11/01 09:25:18;;;;;;;4.43;1.33;;;14.30;99.90;;;;;;5014951;28;20627;-66
2023/11/01 09:27:44;;;;;;;6.10;1.30;;;14.20;99.90;;;;;;5017842;28;20040;-66
2023/11/01 09:30:10;;;;;;;6.32;1.25;;;14.20;99.90;;;;;;5012407;28;20049;-67
2023/11/01 09:32:37;;;;;;;2.30;1.30;;;14.20;99.90;;;;;;5017137;28;20037;-66
2023/11/01 09:35:04;;;;;;;5.05;1.70;;;14.40;99.90;;;;;;5012868;28;20029;-66
2023/11/01 09:37:30;;;;;;;4.60;1.13;;;14.50;99.90;;;;;;5015514;28;20483;-66
2023/11/01 09:39:56;;;;;;;8.40;1.20;;;14.60;99.90;;;;;;5014648;28;20044;-66
2023/11/01 09:42:23;;;;;;;6.82;1.65;;;14.60;99.90;;;;;;5015873;28;20519;-65
2023/11/01 09:44:55;;;;;;;6.82;1.40;;;14.60;99.90;;;;;;5016068;28;20188;-66
2023/11/01 09:47:26;;;;;;;6.85;1.13;;;14.50;99.90;;;;;;5016819;28;20033;-65
2023/11/01 09:49:55;;;;;;;5.63;1.75;;;14.60;99.90;;;;;;5016790;28;20072;-66
2023/11/01 09:52:22;;;;;;;4.72;1.15;;;14.50;99.90;;;;;;5017638;28;20500;-66
2023/11/01 09:54:47;;;;;;;4.47;1.05;;;14.50;99.90;;;;;;5017066;28;20033;-66
2023/11/01 09:57:15;;;;;;;5.60;1.08;;;14.50;99.90;;;;;;5018962;28;20040;-65
2023/11/01 09:59:41;;;;;;;9.30;1.80;;;14.50;99.90;;;;;;5014718;28;20030;-66
2023/11/01 10:02:10;;;;;;;5.78;1.67;;;14.50;99.90;;;;;;5032965;28;20457;-66
2023/11/01 10:04:38;;;;;;;10.00;1.40;;;14.60;99.90;;;;;;5013629;28;20526;-66
2023/11/01 10:07:05;;;;;;;6.32;1.52;;;14.50;99.90;;;;;;5016154;28;20045;-66
2023/11/01 10:09:30;;;;;;;6.15;1.20;;;14.60;99.90;;;;;;4995074;28;20053;-66
2023/11/01 10:11:59;;;;;;;6.55;1.17;;;14.70;99.90;;;;;;5013979;28;20068;-66
2023/11/01 10:14:36;;;;;;;8.98;1.70;;;14.70;99.90;;;;;;5015492;28;20021;-66
2023/11/01 10:17:03;;;;;;;4.57;1.17;;;14.70;99.90;;;;;;5016841;28;20033;-66
2023/11/01 10:19:29;;;;;;;6.30;1.58;;;14.70;99.90;;;;;;5020310;28;20027;-66
2023/11/01 10:21:55;;;;;;;4.78;1.33;;;14.80;99.90;;;;;;5019474;28;20034;-65
2023/11/01 10:24:23;;;;;;;7.63;1.27;;;14.70;99.90;;;;;;5017885;28;20037;-65
2023/11/01 10:26:52;;;;;;;5.85;1.77;;;14.60;99.90;;;;;;5017589;28;20627;-66
2023/11/01 10:29:18;;;;;;;7.05;1.58;;;14.70;99.90;;;;;;5019464;28;20034;-66
2023/11/01 10:32:07;;;;;;;10.43;1.50;;;14.70;99.90;;;;;;5018917;28;20405;-66
2023/11/01 10:34:32;;;;;;;6.47;2.05;;;14.70;99.90;;;;;;5015649;28;20029;-66
2023/11/01 10:36:59;;;;;;;9.80;1.30;;;14.70;99.90;;;;;;5020253;28;20052;-66
2023/11/01 10:39:26;;;;;;;7.65;1.63;;;14.80;99.90;;;;;;5016242;28;20032;-66
2023/11/01 10:41:53;;;;;;;10.50;1.65;;;14.70;99.90;;;;;;5019978;28;20040;-66
2023/11/01 10:44:21;;;;;;;5.53;1.35;;;14.50;99.90;;;;;;5019902;28;20041;-66
2023/11/01 10:46:50;;;;;;;6.35;1.27;;;14.50;99.90;;;;;;5017999;28;20060;-66
2023/11/01 10:49:16;;;;;;;4.10;1.10;;;14.40;99.90;;;;;;5018284;28;20033;-66
2023/11/01 10:51:43;;;;;;;6.22;1.17;;;14.30;99.90;;;;;;5017096;28;20029;-66
2023/11/01 10:54:10;;;;;;;7.28;2.42;;;14.30;99.90;;;;;;5016335;28;20029;-66
2023/11/01 10:56:36;;;;;;;6.30;1.30;;;14.30;99.90;;;;;;5015204;28;20030;-66
2023/11/01 10:59:13;;;;;;;10.65;1.63;;;14.30;99.90;;;;;;5019186;28;20022;-66
2023/11/01 11:01:44;;;;;;;6.47;1.67;;;14.20;99.90;;;;;;5017985;28;20030;-65
2023/11/01 11:04:20;;;;;;;7.32;1.42;;;14.30;99.90;;;;;;5018938;28;21334;-66
2023/11/01 11:06:55;;;;;;;13.90;3.25;;;14.40;99.90;;;;;;5018570;28;20041;-66
2023/11/01 11:09:22;;;;;;;13.70;1.45;;;14.50;99.90;;;;;;4998920;28;20038;-66
2023/11/01 11:12:14;;;;;;;8.07;2.40;;;14.50;99.90;;;;;;5017463;28;20029;-66
2023/11/01 11:14:41;;;;;;;6.13;1.38;;;14.50;99.90;;;;;;5021936;28;20437;-66
2023/11/01 11:17:07;;;;;;;8.95;2.92;;;14.50;99.90;;;;;;5015644;28;20029;-66
2023/11/01 11:20:10;;;;;;;9.50;1.20;;;14.50;99.90;;;;;;5018067;28;20028;-66
2023/11/01 11:22:58;;;;;;;7.50;1.75;;;14.60;99.90;;;;;;5017637;28;20453;-66
2023/11/01 11:25:38;;;;;;;8.63;1.58;;;14.70;99.90;;;;;;5017881;28;20040;-66
2023/11/01 11:28:11;;;;;;;12.35;3.08;;;14.70;99.90;;;;;;5017864;28;20034;-66
2023/11/01 11:30:57;;;;;;;16.92;2.15;;;14.60;99.90;;;;;;5017036;28;20510;-65
2023/11/01 11:33:23;;;;;;;12.65;1.90;;;14.70;99.90;;;;;;5017255;28;20022;-65
2023/11/01 11:36:28;;;;;;;6.40;1.90;;;14.60;99.90;;;;;;5017258;28;20044;-65
2023/11/01 11:38:55;;;;;;;6.05;1.40;;;14.50;99.90;;;;;;4956705;28;20039;-66
2023/11/01 11:41:28;;;;;;;9.88;2.00;;;14.50;99.90;;;;;;4954458;28;20100;-66
2023/11/01 11:44:13;;;;;;;22.02;10.52;;;14.50;99.90;;;;;;4989726;28;20068;-65
2023/11/01 11:46:45;;;;;;;11.82;3.63;;;14.40;99.90;;;;;;5018212;28;20115;-66
2023/11/01 11:49:20;;;;;;;23.20;12.25;;;14.40;99.90;;;;;;5019395;28;20026;-66
2023/11/01 11:51:55;;;;;;;18.35;8.73;;;14.60;99.90;;;;;;5017056;28;20443;-66
2023/11/01 11:54:24;;;;;;;14.10;5.40;;;14.60;99.90;;;;;;5019193;28;20083;-66
2023/11/01 11:56:57;;;;;;;7.85;2.13;;;14.60;99.90;;;;;;5019375;28;20746;-66
2023/11/01 11:59:24;;;;;;;5.32;1.50;;;14.60;99.90;;;;;;5017240;28;20063;-66
2023/11/01 12:01:55;;;;;;;16.67;2.03;;;14.50;99.90;;;;;;5017768;28;20040;-66
2023/11/01 12:04:21;;;;;;;5.25;1.42;;;14.60;99.90;;;;;;5018135;28;20033;-66
2023/11/01 12:06:50;;;;;;;9.60;2.38;;;14.60;99.90;;;;;;5017933;28;20038;-66
2023/11/01 12:09:23;;;;;;;10.40;1.73;;;14.60;99.90;;;;;;4993879;28;20064;-67
2023/11/01 12:12:07;;;;;;;;;;;14.60;99.90;;;;;;5019692;28;20035;-66
2023/11/01 12:14:34;;;;;;;10.13;1.48;;;14.60;99.90;;;;;;5017016;28;19909;-66
2023/11/01 12:17:03;;;;;;;6.43;2.13;;;14.50;99.90;;;;;;5016846;28;20037;-66
2023/11/01 12:19:29;;;;;;;11.45;1.70;;;14.60;99.90;;;;;;5016631;28;20034;-67
2023/11/01 12:21:57;;;;;;;8.82;2.20;;;14.60;99.90;;;;;;5016336;28;20032;-67
2023/11/01 12:24:39;;;;;;;8.27;3.45;;;14.60;99.90;;;;;;5018118;28;20021;-67
2023/11/01 12:27:06;;;;;;;7.85;1.65;;;14.60;99.90;;;;;;5017701;28;20039;-66
2023/11/01 12:29:45;;;;;;;6.70;2.30;;;14.60;99.90;;;;;;5017128;28;20037;-67
2023/11/01 12:32:12;;;;;;;2.83;0.95;;;14.60;99.90;;;;;;5017443;28;20061;-66
2023/11/01 12:34:39;;;;;;;6.35;1.45;;;14.60;99.90;;;;;;5017405;28;20065;-66
2023/11/01 12:37:11;;;;;;;7.32;1.70;;;14.60;99.90;;;;;;5016026;28;20132;-66
2023/11/01 12:39:38;;;;;;;7.78;1.30;;;14.60;99.90;;;;;;5017396;28;20049;-65
2023/11/01 12:42:24;;;;;;;10.07;1.30;;;14.60;99.90;;;;;;5014548;28;20053;-67
2023/11/01 12:44:51;;;;;;;4.82;1.27;;;14.50;99.90;;;;;;5015238;28;20141;-65
2023/11/01 12:47:18;;;;;;;7.28;1.88;;;14.60;99.90;;;;;;5018658;28;20390;-65